sensor_id;sensor_type;location;lat;lon;timestamp;P1;durP1;ratioP1;P2;durP2;ratioP2
29938;SDS011;16799;50.844;5.304;2023-02-26T00:01:31;6.10;;;4.50;;
29938;SDS011;16799;50.844;5.304;2023-02-26T00:03:58;7.10;;;4.40;;
29938;SDS011;16799;50.844;5.304;2023-02-26T00:06:25;13.70;;;4.27;;
29938;SDS011;16799;50.844;5.304;2023-02-26T00:08:52;11.80;;;4.80;;
29938;SDS011;16799;50.844;5.304;2023-02-26T00:11:18;8.83;;;5.80;;
29938;SDS011;16799;50.844;5.304;2023-02-26T00:13:44;5.40;;;4.00;;
29938;SDS011;16799;50.844;5.304;2023-02-26T00:16:33;9.17;;;5.33;;
29938;SDS011;16799;50.844;5.304;2023-02-26T00:18:59;11.77;;;4.23;;
29938;SDS011;16799;50.844;5.304;2023-02-26T00:21:30;8.53;;;4.37;;
29938;SDS011;16799;50.844;5.304;2023-02-26T00:23:58;6.67;;;4.43;;
29938;SDS011;16799;50.844;5.304;2023-02-26T00:26:27;12.80;;;5.07;;
29938;SDS011;16799;50.844;5.304;2023-02-26T00:28:55;9.70;;;4.20;;
29938;SDS011;16799;50.844;5.304;2023-02-26T00:31:21;9.97;;;4.40;;
29938;SDS011;16799;50.844;5.304;2023-02-26T00:33:51;6.90;;;3.50;;
29938;SDS011;16799;50.844;5.304;2023-02-26T00:36:20;17.83;;;4.30;;
29938;SDS011;16799;50.844;5.304;2023-02-26T00:41:39;4.33;;;3.80;;
29938;SDS011;16799;50.844;5.304;2023-02-26T00:44:05;5.87;;;3.63;;
29938;SDS011;16799;50.844;5.304;2023-02-26T00:49:16;9.83;;;3.80;;
29938;SDS011;16799;50.844;5.304;2023-02-26T00:52:01;7.17;;;3.23;;
29938;SDS011;16799;50.844;5.304;2023-02-26T00:54:30;4.10;;;3.77;;
29938;SDS011;16799;50.844;5.304;2023-02-26T00:56:57;20.13;;;5.03;;
29938;SDS011;16799;50.844;5.304;2023-02-26T00:59:23;14.03;;;4.10;;
29938;SDS011;16799;50.844;5.304;2023-02-26T01:01:49;4.00;;;3.10;;
29938;SDS011;16799;50.844;5.304;2023-02-26T01:04:17;12.67;;;4.13;;
29938;SDS011;16799;50.844;5.304;2023-02-26T01:06:48;5.90;;;4.03;;
29938;SDS011;16799;50.844;5.304;2023-02-26T01:09:24;15.17;;;4.03;;
29938;SDS011;16799;50.844;5.304;2023-02-26T01:11:55;12.90;;;3.40;;
29938;SDS011;16799;50.844;5.304;2023-02-26T01:14:26;7.50;;;4.20;;
29938;SDS011;16799;50.844;5.304;2023-02-26T01:16:58;5.67;;;4.40;;
29938;SDS011;16799;50.844;5.304;2023-02-26T01:19:36;10.70;;;4.67;;
29938;SDS011;16799;50.844;5.304;2023-02-26T01:22:20;6.30;;;3.43;;
29938;SDS011;16799;50.844;5.304;2023-02-26T01:25:12;8.40;;;3.33;;
29938;SDS011;16799;50.844;5.304;2023-02-26T01:27:42;7.17;;;3.93;;
29938;SDS011;16799;50.844;5.304;2023-02-26T01:30:08;4.87;;;3.70;;
29938;SDS011;16799;50.844;5.304;2023-02-26T01:32:48;8.03;;;4.13;;
29938;SDS011;16799;50.844;5.304;2023-02-26T01:43:44;14.33;;;4.60;;
29938;SDS011;16799;50.844;5.304;2023-02-26T01:46:38;10.10;;;3.77;;
29938;SDS011;16799;50.844;5.304;2023-02-26T01:49:11;6.43;;;3.83;;
29938;SDS011;16799;50.844;5.304;2023-02-26T01:54:10;6.60;;;3.77;;
29938;SDS011;16799;50.844;5.304;2023-02-26T01:56:36;16.10;;;4.00;;
29938;SDS011;16799;50.844;5.304;2023-02-26T01:59:03;5.83;;;3.20;;
29938;SDS011;16799;50.844;5.304;2023-02-26T02:01:35;9.57;;;4.73;;
29938;SDS011;16799;50.844;5.304;2023-02-26T02:04:02;9.30;;;4.37;;
29938;SDS011;16799;50.844;5.304;2023-02-26T02:06:30;6.20;;;3.40;;
29938;SDS011;16799;50.844;5.304;2023-02-26T02:08:56;12.03;;;4.87;;
29938;SDS011;16799;50.844;5.304;2023-02-26T02:11:21;7.83;;;3.77;;
29938;SDS011;16799;50.844;5.304;2023-02-26T02:16:47;15.70;;;4.63;;
29938;SDS011;16799;50.844;5.304;2023-02-26T02:22:34;9.80;;;4.20;;
29938;SDS011;16799;50.844;5.304;2023-02-26T02:31:16;5.87;;;2.77;;
29938;SDS011;16799;50.844;5.304;2023-02-26T02:33:50;6.63;;;4.23;;
29938;SDS011;16799;50.844;5.304;2023-02-26T02:39:37;2.93;;;2.60;;
29938;SDS011;16799;50.844;5.304;2023-02-26T02:42:29;7.30;;;3.23;;
29938;SDS011;16799;50.844;5.304;2023-02-26T02:45:10;6.80;;;2.97;;
29938;SDS011;16799;50.844;5.304;2023-02-26T02:47:43;5.70;;;3.20;;
29938;SDS011;16799;50.844;5.304;2023-02-26T02:50:20;5.80;;;2.43;;
29938;SDS011;16799;50.844;5.304;2023-02-26T02:53:03;7.33;;;3.50;;
29938;SDS011;16799;50.844;5.304;2023-02-26T02:55:35;9.30;;;3.20;;
29938;SDS011;16799;50.844;5.304;2023-02-26T02:58:10;17.73;;;2.77;;
29938;SDS011;16799;50.844;5.304;2023-02-26T03:00:46;8.53;;;3.97;;
29938;SDS011;16799;50.844;5.304;2023-02-26T03:03:16;4.80;;;3.40;;
29938;SDS011;16799;50.844;5.304;2023-02-26T03:05:44;10.37;;;3.23;;
29938;SDS011;16799;50.844;5.304;2023-02-26T03:08:14;14.27;;;3.83;;
29938;SDS011;16799;50.844;5.304;2023-02-26T03:10:44;6.37;;;2.90;;
29938;SDS011;16799;50.844;5.304;2023-02-26T03:13:18;6.00;;;3.10;;
29938;SDS011;16799;50.844;5.304;2023-02-26T03:21:02;8.53;;;3.20;;
29938;SDS011;16799;50.844;5.304;2023-02-26T03:23:45;6.47;;;3.53;;
29938;SDS011;16799;50.844;5.304;2023-02-26T03:29:53;3.70;;;2.50;;
29938;SDS011;16799;50.844;5.304;2023-02-26T03:32:28;11.80;;;3.10;;
29938;SDS011;16799;50.844;5.304;2023-02-26T03:37:42;11.10;;;3.53;;
29938;SDS011;16799;50.844;5.304;2023-02-26T03:40:15;8.10;;;3.83;;
29938;SDS011;16799;50.844;5.304;2023-02-26T03:42:45;2.17;;;2.07;;
29938;SDS011;16799;50.844;5.304;2023-02-26T03:45:23;9.67;;;3.70;;
29938;SDS011;16799;50.844;5.304;2023-02-26T03:47:52;2.27;;;2.17;;
29938;SDS011;16799;50.844;5.304;2023-02-26T03:50:20;6.23;;;2.93;;
29938;SDS011;16799;50.844;5.304;2023-02-26T03:53:04;5.43;;;2.10;;
29938;SDS011;16799;50.844;5.304;2023-02-26T03:55:41;3.30;;;2.77;;
29938;SDS011;16799;50.844;5.304;2023-02-26T03:58:14;2.67;;;2.17;;
29938;SDS011;16799;50.844;5.304;2023-02-26T04:00:41;2.83;;;2.60;;
29938;SDS011;16799;50.844;5.304;2023-02-26T04:03:12;3.57;;;2.90;;
29938;SDS011;16799;50.844;5.304;2023-02-26T04:05:50;8.37;;;1.90;;
29938;SDS011;16799;50.844;5.304;2023-02-26T04:08:17;7.53;;;3.20;;
29938;SDS011;16799;50.844;5.304;2023-02-26T04:10:46;8.07;;;3.00;;
29938;SDS011;16799;50.844;5.304;2023-02-26T04:13:22;2.83;;;2.20;;
29938;SDS011;16799;50.844;5.304;2023-02-26T04:15:47;2.03;;;1.93;;
29938;SDS011;16799;50.844;5.304;2023-02-26T04:18:13;3.07;;;2.30;;
29938;SDS011;16799;50.844;5.304;2023-02-26T04:20:39;5.50;;;2.40;;
29938;SDS011;16799;50.844;5.304;2023-02-26T04:23:05;4.27;;;2.30;;
29938;SDS011;16799;50.844;5.304;2023-02-26T04:25:31;3.53;;;1.60;;
29938;SDS011;16799;50.844;5.304;2023-02-26T04:27:56;5.57;;;2.50;;
29938;SDS011;16799;50.844;5.304;2023-02-26T04:30:22;7.53;;;3.03;;
29938;SDS011;16799;50.844;5.304;2023-02-26T04:32:47;6.20;;;2.20;;
29938;SDS011;16799;50.844;5.304;2023-02-26T04:35:13;8.43;;;2.40;;
29938;SDS011;16799;50.844;5.304;2023-02-26T04:37:39;2.70;;;2.27;;
29938;SDS011;16799;50.844;5.304;2023-02-26T04:40:05;12.50;;;2.43;;
29938;SDS011;16799;50.844;5.304;2023-02-26T04:42:31;12.60;;;2.70;;
29938;SDS011;16799;50.844;5.304;2023-02-26T04:44:57;13.80;;;2.30;;
29938;SDS011;16799;50.844;5.304;2023-02-26T04:47:22;2.73;;;1.83;;
29938;SDS011;16799;50.844;5.304;2023-02-26T04:49:48;3.07;;;2.30;;
29938;SDS011;16799;50.844;5.304;2023-02-26T04:52:13;5.93;;;2.10;;
29938;SDS011;16799;50.844;5.304;2023-02-26T04:54:39;6.37;;;1.33;;
29938;SDS011;16799;50.844;5.304;2023-02-26T04:57:05;8.80;;;2.17;;
29938;SDS011;16799;50.844;5.304;2023-02-26T04:59:31;3.40;;;2.30;;
29938;SDS011;16799;50.844;5.304;2023-02-26T05:01:57;4.03;;;2.00;;
29938;SDS011;16799;50.844;5.304;2023-02-26T05:04:23;11.60;;;2.10;;
29938;SDS011;16799;50.844;5.304;2023-02-26T05:06:48;6.30;;;2.80;;
29938;SDS011;16799;50.844;5.304;2023-02-26T05:09:14;4.10;;;2.50;;
29938;SDS011;16799;50.844;5.304;2023-02-26T05:11:40;4.10;;;3.13;;
29938;SDS011;16799;50.844;5.304;2023-02-26T05:14:06;1.70;;;1.60;;
29938;SDS011;16799;50.844;5.304;2023-02-26T05:16:31;8.27;;;2.43;;
29938;SDS011;16799;50.844;5.304;2023-02-26T05:18:57;7.03;;;3.03;;
29938;SDS011;16799;50.844;5.304;2023-02-26T05:21:23;7.43;;;2.13;;
29938;SDS011;16799;50.844;5.304;2023-02-26T05:23:48;11.57;;;2.47;;
29938;SDS011;16799;50.844;5.304;2023-02-26T05:26:14;2.60;;;1.57;;
29938;SDS011;16799;50.844;5.304;2023-02-26T05:28:40;7.00;;;2.00;;
29938;SDS011;16799;50.844;5.304;2023-02-26T05:31:09;2.90;;;2.20;;
29938;SDS011;16799;50.844;5.304;2023-02-26T05:33:36;11.93;;;2.83;;
29938;SDS011;16799;50.844;5.304;2023-02-26T05:36:01;10.03;;;2.60;;
29938;SDS011;16799;50.844;5.304;2023-02-26T05:38:27;8.07;;;2.27;;
29938;SDS011;16799;50.844;5.304;2023-02-26T05:40:56;6.43;;;4.20;;
29938;SDS011;16799;50.844;5.304;2023-02-26T05:43:23;3.40;;;1.93;;
29938;SDS011;16799;50.844;5.304;2023-02-26T05:45:50;2.93;;;2.00;;
29938;SDS011;16799;50.844;5.304;2023-02-26T05:48:16;4.20;;;2.40;;
29938;SDS011;16799;50.844;5.304;2023-02-26T05:50:42;3.80;;;1.53;;
29938;SDS011;16799;50.844;5.304;2023-02-26T05:53:07;5.13;;;1.80;;
29938;SDS011;16799;50.844;5.304;2023-02-26T05:55:33;10.60;;;2.73;;
29938;SDS011;16799;50.844;5.304;2023-02-26T05:57:59;7.07;;;2.23;;
29938;SDS011;16799;50.844;5.304;2023-02-26T06:00:25;2.30;;;2.10;;
29938;SDS011;16799;50.844;5.304;2023-02-26T06:02:51;7.97;;;2.30;;
29938;SDS011;16799;50.844;5.304;2023-02-26T06:05:16;3.33;;;2.80;;
29938;SDS011;16799;50.844;5.304;2023-02-26T06:07:42;6.10;;;2.33;;
29938;SDS011;16799;50.844;5.304;2023-02-26T06:10:08;4.47;;;1.60;;
29938;SDS011;16799;50.844;5.304;2023-02-26T06:12:35;6.97;;;2.07;;
29938;SDS011;16799;50.844;5.304;2023-02-26T06:15:00;10.10;;;2.13;;
29938;SDS011;16799;50.844;5.304;2023-02-26T06:17:26;7.30;;;2.70;;
29938;SDS011;16799;50.844;5.304;2023-02-26T06:19:52;6.50;;;4.30;;
29938;SDS011;16799;50.844;5.304;2023-02-26T06:22:18;1.80;;;1.70;;
29938;SDS011;16799;50.844;5.304;2023-02-26T06:24:44;7.80;;;2.10;;
29938;SDS011;16799;50.844;5.304;2023-02-26T06:27:10;5.60;;;1.53;;
29938;SDS011;16799;50.844;5.304;2023-02-26T06:29:35;4.40;;;1.63;;
29938;SDS011;16799;50.844;5.304;2023-02-26T06:32:02;3.53;;;1.70;;
29938;SDS011;16799;50.844;5.304;2023-02-26T06:34:28;5.80;;;1.20;;
29938;SDS011;16799;50.844;5.304;2023-02-26T06:36:54;4.77;;;2.50;;
29938;SDS011;16799;50.844;5.304;2023-02-26T06:39:19;14.37;;;2.70;;
29938;SDS011;16799;50.844;5.304;2023-02-26T06:41:45;25.03;;;2.60;;
29938;SDS011;16799;50.844;5.304;2023-02-26T06:44:11;12.30;;;1.90;;
29938;SDS011;16799;50.844;5.304;2023-02-26T06:46:36;4.63;;;1.50;;
29938;SDS011;16799;50.844;5.304;2023-02-26T06:49:02;5.13;;;2.23;;
29938;SDS011;16799;50.844;5.304;2023-02-26T06:51:28;3.63;;;2.30;;
29938;SDS011;16799;50.844;5.304;2023-02-26T06:53:55;7.83;;;1.90;;
29938;SDS011;16799;50.844;5.304;2023-02-26T06:56:21;5.10;;;2.00;;
29938;SDS011;16799;50.844;5.304;2023-02-26T06:58:47;2.27;;;1.40;;
29938;SDS011;16799;50.844;5.304;2023-02-26T07:01:13;9.50;;;1.40;;
29938;SDS011;16799;50.844;5.304;2023-02-26T07:03:38;1.90;;;1.70;;
29938;SDS011;16799;50.844;5.304;2023-02-26T07:06:04;5.90;;;2.63;;
29938;SDS011;16799;50.844;5.304;2023-02-26T07:08:32;7.50;;;2.03;;
29938;SDS011;16799;50.844;5.304;2023-02-26T07:10:58;6.33;;;1.93;;
29938;SDS011;16799;50.844;5.304;2023-02-26T07:13:24;4.50;;;2.10;;
29938;SDS011;16799;50.844;5.304;2023-02-26T07:15:49;2.07;;;1.70;;
29938;SDS011;16799;50.844;5.304;2023-02-26T07:18:15;1.57;;;1.30;;
29938;SDS011;16799;50.844;5.304;2023-02-26T07:20:41;2.60;;;1.30;;
29938;SDS011;16799;50.844;5.304;2023-02-26T07:23:07;2.60;;;1.37;;
29938;SDS011;16799;50.844;5.304;2023-02-26T07:25:33;2.53;;;2.30;;
29938;SDS011;16799;50.844;5.304;2023-02-26T07:27:59;1.70;;;1.40;;
29938;SDS011;16799;50.844;5.304;2023-02-26T07:30:25;13.50;;;2.37;;
29938;SDS011;16799;50.844;5.304;2023-02-26T07:32:51;7.03;;;1.47;;
29938;SDS011;16799;50.844;5.304;2023-02-26T07:35:17;22.30;;;2.47;;
29938;SDS011;16799;50.844;5.304;2023-02-26T07:37:42;2.97;;;1.40;;
29938;SDS011;16799;50.844;5.304;2023-02-26T07:40:08;4.67;;;2.03;;
29938;SDS011;16799;50.844;5.304;2023-02-26T07:42:35;2.10;;;1.47;;
29938;SDS011;16799;50.844;5.304;2023-02-26T07:45:00;1.70;;;1.33;;
29938;SDS011;16799;50.844;5.304;2023-02-26T07:47:26;2.80;;;2.10;;
29938;SDS011;16799;50.844;5.304;2023-02-26T07:49:54;3.50;;;1.50;;
29938;SDS011;16799;50.844;5.304;2023-02-26T07:52:20;2.57;;;1.60;;
29938;SDS011;16799;50.844;5.304;2023-02-26T07:54:46;6.10;;;2.30;;
29938;SDS011;16799;50.844;5.304;2023-02-26T07:57:12;13.13;;;2.53;;
29938;SDS011;16799;50.844;5.304;2023-02-26T07:59:37;2.80;;;1.20;;
29938;SDS011;16799;50.844;5.304;2023-02-26T08:02:03;1.90;;;1.27;;
29938;SDS011;16799;50.844;5.304;2023-02-26T08:04:29;2.00;;;1.90;;
29938;SDS011;16799;50.844;5.304;2023-02-26T08:06:57;2.30;;;1.77;;
29938;SDS011;16799;50.844;5.304;2023-02-26T08:09:26;7.33;;;1.60;;
29938;SDS011;16799;50.844;5.304;2023-02-26T08:11:52;2.40;;;1.67;;
29938;SDS011;16799;50.844;5.304;2023-02-26T08:14:17;20.10;;;3.07;;
29938;SDS011;16799;50.844;5.304;2023-02-26T08:16:43;8.60;;;1.93;;
29938;SDS011;16799;50.844;5.304;2023-02-26T08:19:09;2.33;;;1.20;;
29938;SDS011;16799;50.844;5.304;2023-02-26T08:21:34;3.17;;;1.80;;
29938;SDS011;16799;50.844;5.304;2023-02-26T08:24:00;1.83;;;1.13;;
29938;SDS011;16799;50.844;5.304;2023-02-26T08:26:26;1.63;;;1.53;;
29938;SDS011;16799;50.844;5.304;2023-02-26T08:28:52;3.53;;;1.47;;
29938;SDS011;16799;50.844;5.304;2023-02-26T08:31:18;2.53;;;1.50;;
29938;SDS011;16799;50.844;5.304;2023-02-26T08:33:44;4.50;;;1.50;;
29938;SDS011;16799;50.844;5.304;2023-02-26T08:36:10;8.53;;;1.37;;
29938;SDS011;16799;50.844;5.304;2023-02-26T08:38:36;6.13;;;1.90;;
29938;SDS011;16799;50.844;5.304;2023-02-26T08:41:02;2.50;;;1.50;;
29938;SDS011;16799;50.844;5.304;2023-02-26T08:43:28;3.33;;;1.50;;
29938;SDS011;16799;50.844;5.304;2023-02-26T08:45:54;2.40;;;1.40;;
29938;SDS011;16799;50.844;5.304;2023-02-26T08:48:21;3.93;;;1.23;;
29938;SDS011;16799;50.844;5.304;2023-02-26T08:50:47;4.70;;;1.87;;
29938;SDS011;16799;50.844;5.304;2023-02-26T08:53:13;1.93;;;1.10;;
29938;SDS011;16799;50.844;5.304;2023-02-26T08:55:39;3.83;;;2.40;;
29938;SDS011;16799;50.844;5.304;2023-02-26T08:58:05;1.80;;;1.40;;
29938;SDS011;16799;50.844;5.304;2023-02-26T09:00:31;2.40;;;1.20;;
29938;SDS011;16799;50.844;5.304;2023-02-26T09:02:57;5.23;;;1.20;;
29938;SDS011;16799;50.844;5.304;2023-02-26T09:05:23;2.80;;;2.23;;
29938;SDS011;16799;50.844;5.304;2023-02-26T09:07:49;5.93;;;2.00;;
29938;SDS011;16799;50.844;5.304;2023-02-26T09:10:15;5.00;;;1.80;;
29938;SDS011;16799;50.844;5.304;2023-02-26T09:12:41;1.90;;;1.10;;
29938;SDS011;16799;50.844;5.304;2023-02-26T09:15:08;6.47;;;2.03;;
29938;SDS011;16799;50.844;5.304;2023-02-26T09:17:34;3.00;;;1.20;;
29938;SDS011;16799;50.844;5.304;2023-02-26T09:20:00;4.70;;;1.30;;
29938;SDS011;16799;50.844;5.304;2023-02-26T09:22:27;2.83;;;1.33;;
29938;SDS011;16799;50.844;5.304;2023-02-26T09:24:53;2.07;;;0.87;;
29938;SDS011;16799;50.844;5.304;2023-02-26T09:27:19;1.17;;;1.07;;
29938;SDS011;16799;50.844;5.304;2023-02-26T09:29:44;3.63;;;1.43;;
29938;SDS011;16799;50.844;5.304;2023-02-26T09:32:10;2.57;;;2.10;;
29938;SDS011;16799;50.844;5.304;2023-02-26T09:34:36;2.70;;;1.10;;
29938;SDS011;16799;50.844;5.304;2023-02-26T09:37:03;2.70;;;1.27;;
29938;SDS011;16799;50.844;5.304;2023-02-26T09:39:30;2.13;;;1.60;;
29938;SDS011;16799;50.844;5.304;2023-02-26T09:41:57;1.63;;;1.00;;
29938;SDS011;16799;50.844;5.304;2023-02-26T09:44:38;12.17;;;1.70;;
29938;SDS011;16799;50.844;5.304;2023-02-26T09:47:06;6.80;;;2.00;;
29938;SDS011;16799;50.844;5.304;2023-02-26T09:49:37;2.80;;;1.47;;
29938;SDS011;16799;50.844;5.304;2023-02-26T09:52:24;11.10;;;1.77;;
29938;SDS011;16799;50.844;5.304;2023-02-26T09:54:52;3.17;;;1.17;;
29938;SDS011;16799;50.844;5.304;2023-02-26T09:57:28;1.90;;;1.20;;
29938;SDS011;16799;50.844;5.304;2023-02-26T09:59:58;4.70;;;1.50;;
29938;SDS011;16799;50.844;5.304;2023-02-26T10:08:03;3.00;;;1.87;;
29938;SDS011;16799;50.844;5.304;2023-02-26T10:14:03;4.73;;;1.27;;
29938;SDS011;16799;50.844;5.304;2023-02-26T10:16:42;2.30;;;1.40;;
29938;SDS011;16799;50.844;5.304;2023-02-26T10:19:15;1.80;;;1.30;;
29938;SDS011;16799;50.844;5.304;2023-02-26T10:21:46;5.20;;;1.93;;
29938;SDS011;16799;50.844;5.304;2023-02-26T10:24:16;3.63;;;1.17;;
29938;SDS011;16799;50.844;5.304;2023-02-26T10:26:54;3.43;;;1.40;;
29938;SDS011;16799;50.844;5.304;2023-02-26T10:34:39;2.23;;;1.43;;
29938;SDS011;16799;50.844;5.304;2023-02-26T10:37:17;2.33;;;1.17;;
29938;SDS011;16799;50.844;5.304;2023-02-26T10:42:42;2.10;;;0.80;;
29938;SDS011;16799;50.844;5.304;2023-02-26T10:50:24;3.73;;;1.77;;
29938;SDS011;16799;50.844;5.304;2023-02-26T10:52:51;1.37;;;1.27;;
29938;SDS011;16799;50.844;5.304;2023-02-26T10:58:20;4.70;;;2.17;;
29938;SDS011;16799;50.844;5.304;2023-02-26T11:00:49;3.03;;;1.13;;
29938;SDS011;16799;50.844;5.304;2023-02-26T11:03:19;1.90;;;1.47;;
29938;SDS011;16799;50.844;5.304;2023-02-26T11:05:47;9.20;;;1.70;;
29938;SDS011;16799;50.844;5.304;2023-02-26T11:08:22;4.00;;;1.57;;
29938;SDS011;16799;50.844;5.304;2023-02-26T11:10:56;7.50;;;1.13;;
29938;SDS011;16799;50.844;5.304;2023-02-26T11:13:25;1.00;;;0.90;;
29938;SDS011;16799;50.844;5.304;2023-02-26T11:15:53;4.67;;;0.90;;
29938;SDS011;16799;50.844;5.304;2023-02-26T11:18:25;1.47;;;0.60;;
29938;SDS011;16799;50.844;5.304;2023-02-26T11:20:57;3.80;;;1.00;;
29938;SDS011;16799;50.844;5.304;2023-02-26T11:23:25;6.43;;;1.07;;
29938;SDS011;16799;50.844;5.304;2023-02-26T11:25:57;5.70;;;1.53;;
29938;SDS011;16799;50.844;5.304;2023-02-26T11:28:45;4.43;;;0.90;;
29938;SDS011;16799;50.844;5.304;2023-02-26T11:31:18;1.53;;;1.27;;
29938;SDS011;16799;50.844;5.304;2023-02-26T11:33:48;2.40;;;0.90;;
29938;SDS011;16799;50.844;5.304;2023-02-26T11:36:19;1.57;;;0.87;;
29938;SDS011;16799;50.844;5.304;2023-02-26T11:38:51;1.67;;;0.80;;
29938;SDS011;16799;50.844;5.304;2023-02-26T11:41:21;2.60;;;1.20;;
29938;SDS011;16799;50.844;5.304;2023-02-26T11:43:48;1.17;;;0.70;;
29938;SDS011;16799;50.844;5.304;2023-02-26T11:46:40;3.83;;;1.07;;
29938;SDS011;16799;50.844;5.304;2023-02-26T11:49:10;1.10;;;0.90;;
29938;SDS011;16799;50.844;5.304;2023-02-26T11:51:41;1.00;;;0.80;;
29938;SDS011;16799;50.844;5.304;2023-02-26T11:54:22;4.10;;;1.97;;
29938;SDS011;16799;50.844;5.304;2023-02-26T11:56:52;1.10;;;0.93;;
29938;SDS011;16799;50.844;5.304;2023-02-26T11:59:30;1.53;;;0.90;;
29938;SDS011;16799;50.844;5.304;2023-02-26T12:02:00;1.23;;;1.13;;
29938;SDS011;16799;50.844;5.304;2023-02-26T12:04:33;0.80;;;0.63;;
29938;SDS011;16799;50.844;5.304;2023-02-26T12:06:58;2.20;;;0.70;;
29938;SDS011;16799;50.844;5.304;2023-02-26T12:09:24;0.90;;;0.90;;
29938;SDS011;16799;50.844;5.304;2023-02-26T12:12:00;2.17;;;0.77;;
29938;SDS011;16799;50.844;5.304;2023-02-26T12:17:37;4.10;;;2.20;;
29938;SDS011;16799;50.844;5.304;2023-02-26T12:26:07;2.40;;;1.07;;
29938;SDS011;16799;50.844;5.304;2023-02-26T12:28:55;1.47;;;0.80;;
29938;SDS011;16799;50.844;5.304;2023-02-26T12:43:06;0.70;;;0.60;;
29938;SDS011;16799;50.844;5.304;2023-02-26T12:56:51;1.37;;;0.70;;
29938;SDS011;16799;50.844;5.304;2023-02-26T12:59:37;2.83;;;0.90;;
29938;SDS011;16799;50.844;5.304;2023-02-26T13:16:11;0.80;;;0.60;;
29938;SDS011;16799;50.844;5.304;2023-02-26T13:18:47;1.60;;;0.50;;
29938;SDS011;16799;50.844;5.304;2023-02-26T13:21:24;1.30;;;0.83;;
29938;SDS011;16799;50.844;5.304;2023-02-26T13:24:04;1.90;;;1.10;;
29938;SDS011;16799;50.844;5.304;2023-02-26T13:26:35;1.17;;;0.80;;
29938;SDS011;16799;50.844;5.304;2023-02-26T13:29:07;1.60;;;0.73;;
29938;SDS011;16799;50.844;5.304;2023-02-26T13:31:46;2.33;;;0.90;;
29938;SDS011;16799;50.844;5.304;2023-02-26T13:34:22;1.03;;;0.93;;
29938;SDS011;16799;50.844;5.304;2023-02-26T13:56:47;1.97;;;0.60;;
29938;SDS011;16799;50.844;5.304;2023-02-26T14:04:50;3.70;;;1.30;;
29938;SDS011;16799;50.844;5.304;2023-02-26T14:07:44;2.30;;;0.70;;
29938;SDS011;16799;50.844;5.304;2023-02-26T14:10:35;1.20;;;0.90;;
29938;SDS011;16799;50.844;5.304;2023-02-26T14:13:21;1.53;;;0.70;;
29938;SDS011;16799;50.844;5.304;2023-02-26T14:15:52;1.37;;;0.70;;
29938;SDS011;16799;50.844;5.304;2023-02-26T14:18:34;2.53;;;0.83;;
29938;SDS011;16799;50.844;5.304;2023-02-26T14:23:49;1.70;;;0.90;;
29938;SDS011;16799;50.844;5.304;2023-02-26T14:26:26;1.67;;;1.00;;
29938;SDS011;16799;50.844;5.304;2023-02-26T14:28:58;1.43;;;0.70;;
29938;SDS011;16799;50.844;5.304;2023-02-26T14:31:49;1.70;;;1.00;;
29938;SDS011;16799;50.844;5.304;2023-02-26T14:34:23;2.10;;;0.80;;
29938;SDS011;16799;50.844;5.304;2023-02-26T14:36:57;1.27;;;0.93;;
29938;SDS011;16799;50.844;5.304;2023-02-26T14:39:30;1.10;;;0.90;;
29938;SDS011;16799;50.844;5.304;2023-02-26T14:42:15;0.97;;;0.70;;
29938;SDS011;16799;50.844;5.304;2023-02-26T14:44:49;1.90;;;1.30;;
29938;SDS011;16799;50.844;5.304;2023-02-26T14:47:21;3.50;;;1.10;;
29938;SDS011;16799;50.844;5.304;2023-02-26T14:49:47;1.60;;;0.73;;
29938;SDS011;16799;50.844;5.304;2023-02-26T14:55:10;2.20;;;1.00;;
29938;SDS011;16799;50.844;5.304;2023-02-26T15:06:10;1.17;;;0.80;;
29938;SDS011;16799;50.844;5.304;2023-02-26T15:09:17;1.10;;;0.83;;
29938;SDS011;16799;50.844;5.304;2023-02-26T15:20:21;1.80;;;1.13;;
29938;SDS011;16799;50.844;5.304;2023-02-26T15:25:42;6.60;;;0.90;;
29938;SDS011;16799;50.844;5.304;2023-02-26T15:28:20;1.03;;;0.73;;
29938;SDS011;16799;50.844;5.304;2023-02-26T15:30:52;1.37;;;1.00;;
29938;SDS011;16799;50.844;5.304;2023-02-26T15:33:19;4.30;;;0.83;;
29938;SDS011;16799;50.844;5.304;2023-02-26T15:35:48;0.97;;;0.80;;
29938;SDS011;16799;50.844;5.304;2023-02-26T15:38:17;1.23;;;0.93;;
29938;SDS011;16799;50.844;5.304;2023-02-26T15:40:43;2.77;;;0.93;;
29938;SDS011;16799;50.844;5.304;2023-02-26T15:43:11;0.60;;;0.60;;
29938;SDS011;16799;50.844;5.304;2023-02-26T15:45:44;0.70;;;0.70;;
29938;SDS011;16799;50.844;5.304;2023-02-26T15:48:13;0.97;;;0.87;;
29938;SDS011;16799;50.844;5.304;2023-02-26T15:50:42;1.43;;;0.70;;
29938;SDS011;16799;50.844;5.304;2023-02-26T15:53:17;0.83;;;0.83;;
29938;SDS011;16799;50.844;5.304;2023-02-26T15:55:49;1.47;;;0.80;;
29938;SDS011;16799;50.844;5.304;2023-02-26T15:58:37;1.57;;;1.03;;
29938;SDS011;16799;50.844;5.304;2023-02-26T16:01:12;0.90;;;0.67;;
29938;SDS011;16799;50.844;5.304;2023-02-26T16:03:43;2.30;;;0.70;;
29938;SDS011;16799;50.844;5.304;2023-02-26T16:06:11;1.27;;;0.80;;
29938;SDS011;16799;50.844;5.304;2023-02-26T16:08:42;1.10;;;0.70;;
29938;SDS011;16799;50.844;5.304;2023-02-26T16:11:07;3.10;;;1.57;;
29938;SDS011;16799;50.844;5.304;2023-02-26T16:13:35;1.10;;;0.90;;
29938;SDS011;16799;50.844;5.304;2023-02-26T16:16:07;5.43;;;0.90;;
29938;SDS011;16799;50.844;5.304;2023-02-26T16:18:38;3.87;;;0.80;;
29938;SDS011;16799;50.844;5.304;2023-02-26T16:21:05;2.87;;;1.30;;
29938;SDS011;16799;50.844;5.304;2023-02-26T16:23:43;1.73;;;0.93;;
29938;SDS011;16799;50.844;5.304;2023-02-26T16:26:17;1.23;;;0.70;;
29938;SDS011;16799;50.844;5.304;2023-02-26T16:28:47;3.90;;;1.03;;
29938;SDS011;16799;50.844;5.304;2023-02-26T16:31:18;1.00;;;1.00;;
29938;SDS011;16799;50.844;5.304;2023-02-26T16:34:06;1.00;;;0.90;;
29938;SDS011;16799;50.844;5.304;2023-02-26T16:36:46;1.07;;;0.97;;
29938;SDS011;16799;50.844;5.304;2023-02-26T16:39:16;1.63;;;1.00;;
29938;SDS011;16799;50.844;5.304;2023-02-26T16:42:13;1.70;;;0.90;;
29938;SDS011;16799;50.844;5.304;2023-02-26T16:44:50;2.20;;;1.30;;
29938;SDS011;16799;50.844;5.304;2023-02-26T16:47:26;3.43;;;0.97;;
29938;SDS011;16799;50.844;5.304;2023-02-26T16:49:54;1.57;;;0.87;;
29938;SDS011;16799;50.844;5.304;2023-02-26T16:52:21;3.33;;;0.90;;
29938;SDS011;16799;50.844;5.304;2023-02-26T16:54:57;1.60;;;1.20;;
29938;SDS011;16799;50.844;5.304;2023-02-26T16:57:33;2.30;;;1.03;;
29938;SDS011;16799;50.844;5.304;2023-02-26T17:00:02;7.43;;;1.60;;
29938;SDS011;16799;50.844;5.304;2023-02-26T17:02:33;2.17;;;1.70;;
29938;SDS011;16799;50.844;5.304;2023-02-26T17:05:04;2.50;;;1.83;;
29938;SDS011;16799;50.844;5.304;2023-02-26T17:07:52;1.70;;;1.60;;
29938;SDS011;16799;50.844;5.304;2023-02-26T17:10:48;4.43;;;1.00;;
29938;SDS011;16799;50.844;5.304;2023-02-26T17:13:18;1.40;;;1.30;;
29938;SDS011;16799;50.844;5.304;2023-02-26T17:15:57;5.20;;;1.13;;
29938;SDS011;16799;50.844;5.304;2023-02-26T17:18:25;4.73;;;0.93;;
29938;SDS011;16799;50.844;5.304;2023-02-26T17:20:51;1.30;;;1.20;;
29938;SDS011;16799;50.844;5.304;2023-02-26T17:23:17;2.13;;;1.00;;
29938;SDS011;16799;50.844;5.304;2023-02-26T17:25:47;1.10;;;0.93;;
29938;SDS011;16799;50.844;5.304;2023-02-26T17:28:18;3.70;;;2.70;;
29938;SDS011;16799;50.844;5.304;2023-02-26T17:30:47;2.50;;;2.03;;
29938;SDS011;16799;50.844;5.304;2023-02-26T17:33:13;2.17;;;1.97;;
29938;SDS011;16799;50.844;5.304;2023-02-26T17:35:39;3.27;;;2.30;;
29938;SDS011;16799;50.844;5.304;2023-02-26T17:38:05;2.50;;;2.00;;
29938;SDS011;16799;50.844;5.304;2023-02-26T17:40:34;3.03;;;2.30;;
29938;SDS011;16799;50.844;5.304;2023-02-26T17:43:03;5.23;;;1.70;;
29938;SDS011;16799;50.844;5.304;2023-02-26T17:45:33;2.20;;;1.33;;
29938;SDS011;16799;50.844;5.304;2023-02-26T17:48:00;9.23;;;1.30;;
29938;SDS011;16799;50.844;5.304;2023-02-26T17:53:00;2.57;;;2.17;;